Meteo Giornale » Osservazioni meteo Stati Uniti (USA) » John Day State
ore: 10:55 - Osservazioni Meteo John Day State
Lat. 44° 23' N Lon. 118° 58' W Alt. 1127 metri s.l.m.
25 °C
Foschia
Temp. 24 Ore
8 °C
25 °C
Est/Nord-Est
9.3 Km/h
Dew point -5 °C
Umidità 13 %
Visibilità 8 Km
Il sole sorge alle ore 06:17
Il sole tramonta alle ore 19:34
| Data e Ora | Cielo e Fenomeni | T °C | DP °C | Um. % | Pres. hPa | Vis. km | Vento km/h | |
|---|---|---|---|---|---|---|---|---|
| Oggi h: 10:55 | Foschia | 25 | -5 | 13 | 1015 | 8 | E/NE 9.3 | |
| Oggi h: 10:35 | Sereno | 23 | -4 | 16 | 1015 | 10 | E/NE 7.4 | |
| Oggi h: 10:15 | Foschia | 22 | -4 | 17 | 1015 | 8 | E/NE 7.4 | |
| Oggi h: 09:55 | Sereno | 21 | -4 | 18 | 1016 | 10 | E 11.1 | |
| Oggi h: 09:35 | Sereno | 19 | -4 | 20 | 1016 | 10 | E/SE 9.3 | |
| Oggi h: 09:15 | Sereno | 17 | -4 | 23 | 1016 | 10 | E 9.3 | |
| Oggi h: 08:55 | Sereno | 16 | -4 | 24 | 1016 | 10 | E 11.1 | |
| Oggi h: 08:35 | Sereno | 14 | -4 | 28 | 1016 | 10 | E 13 | |
| Oggi h: 08:15 | Sereno | 13 | -4 | 30 | 1016 | 10 | E 14.8 | |
| Oggi h: 07:55 | Sereno | 11 | -5 | 32 | 1016 | 10 | E 16.7 | |
| Oggi h: 07:35 | Sereno | 10 | -5 | 34 | 1016 | 10 | E 14.8 | |
| Oggi h: 07:15 | Sereno | 9 | -5 | 36 | 1016 | 10 | E 13 | |
| Oggi h: 06:55 | Sereno | 10 | -5 | 34 | 1016 | 10 | E/SE 14.8 | |
| Oggi h: 06:35 | Sereno | 9 | -6 | 33 | 1016 | 10 | E/SE 14.8 | |
| Oggi h: 06:15 | Sereno | 9 | -6 | 33 | 1016 | 10 | SE 16.7 | |
| Oggi h: 05:55 | Sereno | 8 | -6 | 36 | 1016 | 10 | E/SE 14.8 | |
| Oggi h: 05:35 | Sereno | 8 | -6 | 36 | 1016 | 10 | E/SE 16.7 | |
| Oggi h: 05:15 | Sereno | 9 | -6 | 33 | 1016 | 10 | E/SE 14.8 | |
| Oggi h: 04:50 | Sereno | 9 | -6 | 33 | 1016 | 10 | E/SE 9.3 | |
| Oggi h: 04:35 | Sereno | 10 | -6 | 31 | 1016 | 10 | SE 11.1 | |
| Oggi h: 04:15 | Sereno | 11 | -6 | 29 | 1017 | 10 | SE 13 | |
| Oggi h: 03:55 | Sereno | 11 | -6 | 29 | 1016 | 10 | E/SE 13 | |
| Oggi h: 03:30 | Sereno | 11 | -6 | 29 | 1016 | 10 | SE 13 | |
| Oggi h: 03:15 | Sereno | 11 | -6 | 29 | 1017 | 10 | SE 11.1 | |
| Oggi h: 02:55 | Sereno | 11 | -6 | 29 | 1017 | 10 | SE 13 | |
| Oggi h: 02:35 | Sereno | 11 | -6 | 29 | 1017 | 10 | E/SE 16.7 | |
| Oggi h: 02:10 | Sereno | 11 | -6 | 29 | 1017 | 10 | E/SE 16.7 | |
| Oggi h: 01:55 | Sereno | 12 | -6 | 27 | 1017 | 10 | E 13 | |
| Oggi h: 01:35 | Sereno | 11 | -5 | 32 | 1017 | 10 | E/SE 14.8 | |
| Oggi h: 01:15 | Sereno | 11 | -5 | 32 | 1017 | 10 | E 13 | |
| Oggi h: 00:55 | Sereno | 12 | -5 | 30 | 1017 | 10 | E/SE 13 | |
| Oggi h: 00:35 | Sereno | 13 | -5 | 28 | 1017 | 10 | E/SE 11.1 | |
| Oggi h: 00:15 | Sereno | 13 | -5 | 28 | 1017 | 10 | SE 14.8 | |
| Ieri h: 23:55 | Sereno | 13 | -5 | 28 | 1017 | 10 | E/SE 13 | |
| Ieri h: 23:35 | Sereno | 14 | -5 | 26 | 1017 | 10 | E/SE 14.8 | |
| Ieri h: 23:15 | Sereno | 14 | -5 | 26 | 1017 | 10 | E/SE 14.8 | |
| Ieri h: 22:55 | Sereno | 13 | -5 | 28 | 1017 | 10 | E 16.7 | |
| Ieri h: 22:35 | Sereno | 14 | -5 | 26 | 1017 | 10 | E 14.8 | |
| Ieri h: 22:15 | Sereno | 15 | -5 | 24 | 1017 | 10 | E 11.1 | |
| Ieri h: 21:55 | Sereno | 16 | -5 | 23 | 1017 | 10 | N 0 | |
| Ieri h: 21:35 | Sereno | 16 | -6 | 21 | 1017 | 10 | N 7.4 | |
| Ieri h: 21:15 | Sereno | 18 | -5 | 20 | 1017 | 10 | N 0 | |
| Ieri h: 20:55 | Sereno | 18 | -5 | 20 | 1017 | 10 | N 5.5 | |
| Ieri h: 20:35 | Sereno | 18 | -5 | 20 | 1017 | 10 | N 5.5 | |
| Ieri h: 20:15 | Sereno | 18 | -5 | 20 | 1017 | 10 | NE 9.3 | |
| Ieri h: 19:55 | Sereno | 20 | -4 | 19 | 1017 | 10 | N 5.5 | |
| Ieri h: 19:35 | Sereno | 21 | -5 | 16 | 1016 | 10 | N 0 | |
| Ieri h: 19:15 | Sereno | 22 | -4 | 17 | 1016 | 10 | N 0 | |
| Ieri h: 18:55 | Sereno | 23 | -4 | 16 | 1016 | 10 | O/NO 7.4 | |
| Ieri h: 18:35 | Sereno | 23 | -5 | 14 | 1017 | 10 | N 5.5 | |
| Ieri h: 18:15 | Sereno | 23 | -5 | 14 | 1017 | 10 | N 5.5 | |
| Ieri h: 17:55 | Sereno | 24 | -6 | 13 | 1017 | 10 | N 0 | |
| Ieri h: 17:35 | Sereno | 24 | -6 | 13 | 1017 | 10 | N 0 | |
| Ieri h: 17:15 | Sereno | 24 | -6 | 13 | 1017 | 10 | N 5.5 | |
| Ieri h: 16:55 | Sereno | 24 | -7 | 12 | 1017 | 10 | N 7.4 | |
| Ieri h: 16:35 | Sereno | 24 | -9 | 10 | 1017 | 10 | NO 13 | |
| Ieri h: 16:15 | Sereno | 24 | -9 | 10 | 1017 | 10 | O/NO 16.7 | |
| Ieri h: 15:55 | Sereno | 24 | -10 | 9 | 1017 | 10 | O 13 | |
| Ieri h: 15:35 | Sereno | 23 | -6 | 13 | 1018 | 10 | N 0 | |
| Ieri h: 15:15 | Sereno | 23 | -3 | 17 | 1018 | 10 | N 0 | |
| Ieri h: 14:55 | Sereno | 23 | -2 | 18 | 1018 | 10 | NO 7.4 | |
| Ieri h: 14:35 | Sereno | 23 | -1 | 20 | 1018 | 10 | O/NO 11.1 | |
| Ieri h: 14:15 | Sereno | 21 | -2 | 21 | 1019 | 10 | O 11.1 | |
| Ieri h: 13:55 | Sereno | 21 | -1 | 22 | 1019 | 10 | O 14.8 | |
| Ieri h: 13:35 | Sereno | 20 | 0 | 26 | 1019 | 10 | N 9.3 | |
| Ieri h: 13:15 | Sereno | 20 | 0 | 26 | 1019 | 10 | O/NO 9.3 | |
| Ieri h: 12:55 | Sereno | 19 | 0 | 27 | 1019 | 10 | O/NO 7.4 | |
| Ieri h: 12:35 | Sereno | 19 | 1 | 29 | 1019 | 10 | N 9.3 | |
| Ieri h: 12:15 | Sereno | 18 | 0 | 29 | 1020 | 10 | NO 7.4 | |
| Ieri h: 11:55 | Sereno | 17 | 1 | 33 | 1020 | 10 | O/NO 7.4 | |
| Ieri h: 11:35 | Sereno | 17 | 1 | 33 | 1020 | 10 | N 5.5 | |



